createdAt,value
2019-03-24T00:00:44.682Z,76.92
2019-03-24T00:03:13.475Z,76.51
2019-03-24T00:05:41.881Z,76.33
2019-03-24T00:08:10.295Z,76.10
2019-03-24T00:10:38.702Z,76.21
2019-03-24T00:13:08.486Z,76.04
2019-03-24T00:15:36.811Z,76.47
2019-03-24T00:18:05.695Z,76.81
2019-03-24T00:20:34.099Z,76.57
2019-03-24T00:23:03.408Z,76.83
2019-03-24T00:25:34.359Z,77.36
2019-03-24T00:28:02.743Z,77.09
2019-03-24T00:30:31.152Z,77.00
2019-03-24T00:32:59.525Z,76.72
2019-03-24T00:35:27.923Z,76.70
2019-03-24T00:37:56.315Z,76.83
2019-03-24T00:40:24.719Z,76.71
2019-03-24T00:42:53.103Z,76.64
2019-03-24T00:45:25.262Z,77.26
2019-03-24T00:47:53.690Z,77.27
2019-03-24T00:50:29.126Z,77.09
2019-03-24T00:52:56.483Z,77.14
2019-03-24T00:55:24.964Z,76.82
2019-03-24T00:57:53.392Z,76.82
2019-03-24T01:00:39.013Z,77.19
2019-03-24T01:03:08.429Z,77.01
2019-03-24T01:05:36.873Z,77.17
2019-03-24T01:08:05.261Z,77.01
2019-03-24T01:10:36.052Z,76.93
2019-03-24T01:13:04.813Z,76.92
2019-03-24T01:15:33.225Z,77.37
2019-03-24T01:18:01.877Z,77.14
2019-03-24T01:20:31.268Z,77.14
2019-03-24T01:22:59.649Z,76.87
2019-03-24T01:25:28.097Z,76.83
2019-03-24T01:27:56.503Z,76.72
2019-03-24T01:30:24.891Z,76.99
2019-03-24T01:32:54.382Z,77.34
2019-03-24T01:35:22.754Z,77.71
2019-03-24T01:37:51.162Z,77.71
2019-03-24T01:40:20.838Z,77.74
2019-03-24T01:42:49.259Z,77.74
2019-03-24T01:45:17.731Z,76.90
2019-03-24T01:47:46.144Z,76.90
2019-03-24T01:50:14.680Z,77.33
2019-03-24T01:52:43.061Z,77.40
2019-03-24T01:55:14.464Z,77.30
2019-03-24T01:57:42.843Z,77.30
2019-03-24T02:00:14.356Z,77.30
2019-03-24T02:02:42.749Z,77.30
2019-03-24T02:05:11.335Z,78.26
2019-03-24T02:07:40.815Z,78.38
2019-03-24T02:10:12.112Z,78.22
2019-03-24T02:12:40.508Z,78.04
2019-03-24T02:15:12.189Z,78.23
2019-03-24T02:17:42.579Z,78.38
2019-03-24T02:20:11.194Z,78.47
2019-03-24T02:22:40.674Z,78.29
2019-03-24T02:25:12.023Z,78.52
2019-03-24T02:27:43.198Z,78.78
2019-03-24T02:30:11.970Z,78.98
2019-03-24T02:32:40.363Z,78.66
2019-03-24T02:35:12.660Z,78.94
2019-03-24T02:37:42.095Z,78.86
2019-03-24T02:40:12.126Z,79.16
2019-03-24T02:42:40.544Z,79.51
2019-03-24T02:45:09.507Z,79.26
2019-03-24T02:47:38.088Z,79.10
2019-03-24T02:50:08.546Z,78.60
2019-03-24T02:52:36.954Z,78.83
2019-03-24T02:55:07.208Z,79.24
2019-03-24T02:57:35.616Z,79.26
2019-03-24T03:00:09.105Z,79.32
2019-03-24T03:02:37.528Z,79.39
2019-03-24T03:05:08.204Z,79.43
2019-03-24T03:07:36.610Z,79.12
2019-03-24T03:10:08.811Z,79.11
2019-03-24T03:12:38.335Z,79.16
2019-03-24T03:15:11.342Z,79.04
2019-03-24T03:17:39.771Z,78.90
2019-03-24T03:20:09.028Z,79.19
2019-03-24T03:22:37.457Z,79.19
2019-03-24T03:25:08.652Z,79.10
2019-03-24T03:27:37.131Z,79.04
2019-03-24T03:30:10.894Z,78.97
2019-03-24T03:32:39.409Z,79.11
2019-03-24T03:35:10.403Z,79.12
2019-03-24T03:37:38.882Z,78.94
2019-03-24T03:40:07.953Z,79.27
2019-03-24T03:42:37.182Z,79.14
2019-03-24T03:45:06.433Z,78.93
2019-03-24T03:47:34.869Z,79.12
2019-03-24T03:50:04.229Z,78.96
2019-03-24T03:52:32.638Z,79.13
2019-03-24T03:55:04.622Z,78.95
2019-03-24T03:57:33.028Z,79.02
2019-03-24T04:00:01.437Z,79.36
2019-03-24T04:02:29.831Z,79.10
2019-03-24T04:04:58.261Z,79.13
2019-03-24T04:07:26.734Z,79.27
2019-03-24T04:09:55.146Z,78.97
2019-03-24T04:12:23.576Z,78.71
2019-03-24T04:14:51.970Z,78.80
2019-03-24T04:17:20.385Z,78.97
2019-03-24T04:19:48.798Z,79.08
2019-03-24T04:22:19.840Z,79.22
2019-03-24T04:24:48.251Z,78.90
2019-03-24T04:27:16.669Z,79.27
2019-03-24T04:29:45.080Z,79.00
2019-03-24T04:32:13.478Z,78.79
2019-03-24T04:34:41.875Z,78.95
2019-03-24T04:37:10.272Z,78.76
2019-03-24T04:39:38.689Z,78.62
2019-03-24T04:42:08.197Z,78.54
2019-03-24T04:44:36.590Z,78.71
2019-03-24T04:47:16.148Z,78.90
2019-03-24T04:49:39.014Z,78.83
2019-03-24T04:52:07.410Z,78.66
2019-03-24T04:54:35.788Z,78.73
2019-03-24T04:57:04.204Z,78.78
2019-03-24T04:59:32.602Z,79.00
2019-03-24T05:02:01.003Z,78.91
2019-03-24T05:04:29.507Z,78.89
2019-03-24T05:06:59.327Z,78.43
2019-03-24T05:09:28.797Z,77.58
2019-03-24T05:11:57.200Z,77.25
2019-03-24T05:14:26.529Z,77.41
2019-03-24T05:16:54.986Z,77.65
2019-03-24T05:19:24.264Z,77.65
2019-03-24T05:21:52.668Z,77.59
2019-03-24T05:24:21.066Z,78.03
2019-03-24T05:26:53.253Z,77.56
2019-03-24T05:29:22.728Z,78.95
2019-03-24T05:31:51.132Z,79.21
2019-03-24T05:34:21.595Z,79.67
2019-03-24T05:36:50.015Z,79.99
2019-03-24T05:39:18.398Z,79.80
2019-03-24T05:41:46.812Z,79.61
2019-03-24T05:44:15.236Z,79.59
2019-03-24T05:46:44.748Z,79.67
2019-03-24T05:49:13.155Z,79.80
2019-03-24T05:51:44.035Z,79.54
2019-03-24T05:54:12.441Z,79.67
2019-03-24T05:56:43.470Z,79.56
2019-03-24T05:59:11.879Z,79.48
2019-03-24T06:01:40.365Z,79.52
2019-03-24T06:04:08.794Z,79.41
2019-03-24T06:06:37.208Z,79.14
2019-03-24T06:09:06.559Z,79.28
2019-03-24T06:11:36.117Z,79.14
2019-03-24T06:14:04.551Z,79.08
2019-03-24T06:16:32.975Z,78.97
2019-03-24T06:19:01.358Z,79.06
2019-03-24T06:21:33.629Z,79.08
2019-03-24T06:24:02.014Z,78.93
2019-03-24T06:26:31.329Z,78.99
2019-03-24T06:28:59.738Z,78.63
2019-03-24T06:31:28.366Z,78.89
2019-03-24T06:33:56.748Z,78.42
2019-03-24T06:36:25.161Z,77.72
2019-03-24T06:38:53.574Z,77.15
2019-03-24T06:41:21.966Z,77.33
2019-03-24T06:43:50.359Z,77.21
2019-03-24T06:46:22.902Z,77.19
2019-03-24T06:48:51.569Z,77.06
2019-03-24T06:51:21.058Z,76.37
2019-03-24T06:53:49.490Z,76.74
2019-03-24T06:56:17.876Z,76.54
2019-03-24T06:58:46.299Z,76.51
2019-03-24T07:01:14.690Z,76.37
2019-03-24T07:03:43.123Z,76.54
2019-03-24T07:06:11.507Z,76.46
2019-03-24T07:08:42.380Z,75.92
2019-03-24T07:11:13.701Z,75.70
2019-03-24T07:13:43.859Z,75.62
2019-03-24T07:16:13.328Z,75.63
2019-03-24T07:18:44.215Z,75.26
2019-03-24T07:21:16.531Z,75.19
2019-03-24T07:23:44.915Z,75.03
2019-03-24T07:26:13.773Z,74.47
2019-03-24T07:28:45.794Z,74.23
2019-03-24T07:31:14.224Z,74.22
2019-03-24T07:33:42.623Z,73.82
2019-03-24T07:36:11.995Z,73.67
2019-03-24T07:38:40.416Z,73.38
2019-03-24T07:41:08.795Z,73.24
2019-03-24T07:43:40.221Z,72.78
2019-03-24T07:46:12.714Z,72.09
2019-03-24T07:48:40.367Z,72.16
2019-03-24T07:51:08.700Z,71.76
2019-03-24T07:53:39.848Z,70.99
2019-03-24T07:56:10.989Z,70.48
2019-03-24T07:58:39.459Z,69.69
2019-03-24T08:01:11.207Z,69.31
2019-03-24T08:03:41.661Z,68.75
2019-03-24T08:06:10.069Z,68.82
2019-03-24T08:08:44.623Z,68.49
2019-03-24T08:11:14.414Z,67.41
2019-03-24T08:13:53.142Z,67.00
2019-03-24T08:16:12.987Z,66.86
2019-03-24T08:19:20.348Z,64.94
2019-03-24T08:21:26.680Z,65.17
2019-03-24T08:23:56.128Z,64.52
2019-03-24T08:26:33.424Z,64.20
2019-03-24T08:29:03.171Z,65.33
2019-03-24T08:31:47.157Z,63.77
2019-03-24T08:34:20.689Z,64.53
2019-03-24T08:36:51.469Z,63.62
2019-03-24T08:39:24.575Z,62.36
2019-03-24T08:41:57.034Z,61.54
2019-03-24T08:44:25.710Z,61.55
2019-03-24T08:46:56.722Z,59.95
2019-03-24T08:49:30.015Z,58.37
2019-03-24T08:53:23.409Z,58.37
2019-03-24T08:55:56.242Z,58.37
2019-03-24T08:58:35.480Z,55.34
2019-03-24T09:01:02.974Z,56.19
2019-03-24T09:03:37.304Z,58.02
2019-03-24T09:06:05.768Z,58.41
2019-03-24T09:08:34.168Z,57.80
2019-03-24T09:11:02.623Z,57.30
2019-03-24T09:13:32.435Z,57.20
2019-03-24T09:16:04.066Z,58.16
2019-03-24T09:18:31.983Z,60.28
2019-03-24T09:21:06.183Z,58.02
2019-03-24T09:23:34.587Z,59.97
2019-03-24T09:26:02.975Z,57.94
2019-03-24T09:28:31.371Z,57.12
2019-03-24T09:31:00.598Z,57.56
2019-03-24T09:33:29.016Z,59.07
2019-03-24T09:35:57.398Z,59.92
2019-03-24T09:38:25.816Z,57.17
2019-03-24T09:40:54.238Z,58.59
2019-03-24T09:43:22.668Z,57.51
2019-03-24T09:45:51.040Z,58.61
2019-03-24T09:48:20.270Z,59.71
2019-03-24T09:50:48.689Z,58.92
2019-03-24T09:53:18.071Z,58.06
2019-03-24T09:55:49.120Z,58.08
2019-03-24T09:58:17.881Z,57.72
2019-03-24T10:00:48.727Z,56.09
2019-03-24T10:03:17.155Z,58.28
2019-03-24T10:05:50.017Z,55.69
2019-03-24T10:08:18.400Z,55.02
2019-03-24T10:10:46.810Z,56.58
2019-03-24T10:14:29.382Z,55.90
2019-03-24T10:16:57.770Z,55.90
2019-03-24T10:19:51.195Z,53.13
2019-03-24T10:22:23.217Z,53.13
2019-03-24T10:24:56.800Z,53.13
2019-03-24T10:27:25.261Z,53.13
2019-03-24T10:30:09.139Z,53.02
2019-03-24T10:32:37.528Z,53.02
2019-03-24T10:36:13.950Z,50.64
2019-03-24T10:38:44.021Z,50.64
2019-03-24T10:41:14.890Z,47.40
2019-03-24T10:43:44.411Z,51.24
2019-03-24T10:46:21.908Z,49.45
2019-03-24T10:48:57.550Z,47.87
2019-03-24T10:51:37.540Z,48.88
2019-03-24T10:54:05.940Z,48.88
2019-03-24T10:56:34.395Z,48.17
2019-03-24T10:59:07.532Z,48.98
2019-03-24T11:01:35.941Z,47.94
2019-03-24T11:04:07.862Z,49.99
2019-03-24T11:06:39.808Z,49.69
2019-03-24T11:09:12.699Z,48.06
2019-03-24T11:11:47.729Z,51.40
2019-03-24T11:14:16.130Z,52.68
2019-03-24T11:16:44.532Z,51.44
2019-03-24T11:19:12.914Z,51.88
2019-03-24T11:21:42.390Z,51.45
2019-03-24T11:24:10.808Z,50.26
2019-03-24T11:26:44.666Z,51.77
2019-03-24T11:29:13.111Z,49.07
2019-03-24T11:31:41.500Z,47.13
2019-03-24T11:34:09.887Z,48.99
2019-03-24T11:36:38.292Z,49.47
2019-03-24T11:39:07.833Z,44.40
2019-03-24T11:41:38.562Z,46.83
2019-03-24T11:44:08.666Z,46.08
2019-03-24T11:46:37.043Z,46.33
2019-03-24T11:49:06.976Z,46.62
2019-03-24T11:51:35.359Z,47.68
2019-03-24T11:54:03.752Z,45.54
2019-03-24T11:56:32.191Z,45.74
2019-03-24T11:59:00.528Z,44.74
2019-03-24T12:01:38.219Z,44.76
2019-03-24T12:04:01.034Z,43.57
2019-03-24T12:06:29.406Z,44.02
2019-03-24T12:08:57.821Z,43.51
2019-03-24T12:11:26.242Z,43.67
2019-03-24T12:13:54.640Z,43.67
2019-03-24T12:16:23.135Z,43.81
2019-03-24T12:18:51.537Z,43.30
2019-03-24T12:21:37.181Z,41.80
2019-03-24T12:24:08.272Z,41.80
2019-03-24T12:26:40.442Z,42.11
2019-03-24T12:29:09.453Z,43.69
2019-03-24T12:31:37.835Z,44.26
2019-03-24T12:34:12.530Z,42.70
2019-03-24T12:36:40.953Z,42.87
2019-03-24T12:39:24.510Z,42.85
2019-03-24T12:41:52.897Z,40.30
2019-03-24T12:44:51.634Z,43.68
2019-03-24T12:47:21.017Z,43.68
2019-03-24T12:49:49.394Z,42.15
2019-03-24T12:52:18.464Z,42.69
2019-03-24T12:54:54.685Z,42.61
2019-03-24T12:57:40.086Z,43.25
2019-03-24T13:00:09.635Z,43.03
2019-03-24T13:02:39.058Z,44.46
2019-03-24T13:05:36.946Z,44.71
2019-03-24T13:08:22.482Z,47.37
2019-03-24T13:10:50.816Z,45.79
2019-03-24T13:16:21.996Z,45.15
2019-03-24T13:19:19.882Z,44.81
2019-03-24T13:24:38.601Z,45.74
2019-03-24T13:27:22.471Z,43.51
2019-03-24T13:29:53.155Z,43.01
2019-03-24T13:32:26.878Z,43.47
2019-03-24T13:34:55.287Z,44.21
2019-03-24T13:37:29.497Z,43.54
2019-03-24T13:39:59.026Z,41.07
2019-03-24T13:42:30.977Z,42.59
2019-03-24T13:45:05.117Z,41.64
2019-03-24T13:47:37.627Z,43.32
2019-03-24T13:50:06.948Z,41.95
2019-03-24T13:52:35.431Z,38.71
2019-03-24T13:55:05.202Z,38.66
2019-03-24T13:57:36.070Z,39.93
2019-03-24T14:00:06.518Z,40.40
2019-03-24T14:02:41.933Z,39.99
2019-03-24T14:05:08.703Z,40.81
2019-03-24T14:07:37.121Z,42.43
2019-03-24T14:10:07.268Z,42.74
2019-03-24T14:12:35.679Z,43.70
2019-03-24T14:15:06.370Z,43.26
2019-03-24T14:17:34.759Z,45.29
2019-03-24T14:20:04.682Z,45.07
2019-03-24T14:22:33.083Z,47.27
2019-03-24T14:25:02.545Z,47.23
2019-03-24T14:27:34.837Z,45.03
2019-03-24T14:30:04.771Z,45.25
2019-03-24T14:32:42.436Z,45.63
2019-03-24T14:35:17.395Z,45.24
2019-03-24T14:37:55.248Z,43.69
2019-03-24T14:40:29.337Z,44.09
2019-03-24T14:42:59.383Z,45.02
2019-03-24T14:45:31.518Z,45.35
2019-03-24T14:47:59.942Z,44.53
2019-03-24T14:50:28.338Z,45.70
2019-03-24T14:52:59.705Z,45.94
2019-03-24T14:55:40.946Z,46.32
2019-03-24T14:58:06.254Z,47.10
2019-03-24T15:00:41.474Z,47.44
2019-03-24T15:03:23.065Z,46.88
2019-03-24T15:05:51.453Z,43.99
2019-03-24T15:08:19.848Z,44.46
2019-03-24T15:10:48.250Z,43.82
2019-03-24T15:13:16.730Z,44.37
2019-03-24T15:15:45.132Z,46.11
2019-03-24T15:18:22.324Z,47.05
2019-03-24T15:21:05.487Z,48.84
2019-03-24T15:23:27.705Z,49.23
2019-03-24T15:25:56.100Z,49.35
2019-03-24T15:28:41.387Z,49.38
2019-03-24T15:31:13.511Z,48.99
2019-03-24T15:33:42.960Z,48.31
2019-03-24T15:36:13.466Z,49.49
2019-03-24T15:38:42.952Z,49.09
2019-03-24T15:41:18.294Z,48.19
2019-03-24T15:43:46.249Z,48.28
2019-03-24T15:46:14.642Z,48.24
2019-03-24T15:48:43.046Z,46.37
2019-03-24T15:51:16.715Z,47.33
2019-03-24T15:53:41.551Z,47.46
2019-03-24T15:56:09.930Z,47.72
2019-03-24T15:58:40.969Z,47.98
2019-03-24T16:01:11.454Z,47.31
2019-03-24T16:03:39.850Z,47.67
2019-03-24T16:06:08.235Z,47.11
2019-03-24T16:08:36.720Z,47.83
2019-03-24T16:11:05.103Z,47.44
2019-03-24T16:13:36.026Z,47.18
2019-03-24T16:16:04.421Z,47.66
2019-03-24T16:18:34.521Z,47.67
2019-03-24T16:21:03.924Z,48.93
2019-03-24T16:23:34.270Z,50.40
2019-03-24T16:26:03.093Z,50.29
2019-03-24T16:28:31.669Z,50.79
2019-03-24T16:31:00.057Z,51.00
2019-03-24T16:33:28.470Z,52.35
2019-03-24T16:35:56.863Z,52.01
2019-03-24T16:38:27.040Z,52.38
2019-03-24T16:40:55.908Z,52.22
2019-03-24T16:43:24.296Z,52.53
2019-03-24T16:45:52.693Z,53.02
2019-03-24T16:48:24.705Z,52.97
2019-03-24T16:50:56.144Z,53.35
2019-03-24T16:53:27.335Z,54.21
2019-03-24T16:55:55.731Z,54.07
2019-03-24T16:58:24.152Z,54.52
2019-03-24T17:00:56.360Z,54.74
2019-03-24T17:03:29.372Z,55.15
2019-03-24T17:06:00.228Z,55.64
2019-03-24T17:08:28.696Z,55.49
2019-03-24T17:10:57.119Z,56.26
2019-03-24T17:13:25.607Z,57.00
2019-03-24T17:15:53.986Z,57.73
2019-03-24T17:18:37.827Z,58.20
2019-03-24T17:21:04.516Z,58.20
2019-03-24T17:23:36.501Z,59.42
2019-03-24T17:26:08.668Z,59.48
2019-03-24T17:28:37.066Z,59.57
2019-03-24T17:31:12.775Z,60.55
2019-03-24T17:33:41.200Z,60.88
2019-03-24T17:36:12.898Z,61.89
2019-03-24T17:38:42.371Z,61.94
2019-03-24T17:41:16.151Z,62.25
2019-03-24T17:43:44.552Z,62.98
2019-03-24T17:46:12.944Z,63.08
2019-03-24T17:48:41.356Z,62.96
2019-03-24T17:51:16.039Z,63.54
2019-03-24T17:53:44.621Z,64.11
2019-03-24T17:56:15.410Z,64.30
2019-03-24T17:58:43.857Z,64.51
2019-03-24T18:01:12.237Z,65.03
2019-03-24T18:03:40.618Z,65.33
2019-03-24T18:06:10.296Z,65.82
2019-03-24T18:08:38.599Z,66.16
2019-03-24T18:11:07.004Z,65.84
2019-03-24T18:13:40.798Z,65.46
2019-03-24T18:16:09.212Z,66.11
2019-03-24T18:18:37.619Z,66.42
2019-03-24T18:21:06.118Z,66.81
2019-03-24T18:23:35.530Z,66.67
2019-03-24T18:26:04.165Z,66.79
2019-03-24T18:28:32.609Z,66.67
2019-03-24T18:31:09.413Z,66.92
2019-03-24T18:33:37.830Z,66.69
2019-03-24T18:36:07.268Z,67.20
2019-03-24T18:38:35.756Z,67.14
2019-03-24T18:41:04.252Z,67.95
2019-03-24T18:43:33.720Z,66.92
2019-03-24T18:46:02.823Z,67.90
2019-03-24T18:48:32.024Z,67.83
2019-03-24T18:51:00.427Z,67.36
2019-03-24T18:53:28.910Z,67.01
2019-03-24T18:55:57.428Z,67.39
2019-03-24T18:58:33.675Z,67.39
2019-03-24T19:00:59.326Z,68.38
2019-03-24T19:03:28.896Z,68.07
2019-03-24T19:05:58.365Z,68.43
2019-03-24T19:08:30.225Z,68.50
2019-03-24T19:11:01.049Z,68.34
2019-03-24T19:13:29.520Z,68.46
2019-03-24T19:15:57.898Z,68.50
2019-03-24T19:18:26.305Z,67.83
2019-03-24T19:20:54.688Z,67.96
2019-03-24T19:23:23.113Z,68.13
2019-03-24T19:25:52.803Z,68.42
2019-03-24T19:28:21.535Z,68.66
2019-03-24T19:30:53.180Z,68.77
2019-03-24T19:33:21.236Z,68.33
2019-03-24T19:35:50.021Z,68.24
2019-03-24T19:38:19.750Z,67.85
2019-03-24T19:40:48.181Z,68.48
2019-03-24T19:43:16.597Z,69.32
2019-03-24T19:45:45.976Z,68.32
2019-03-24T19:48:14.394Z,68.06
2019-03-24T19:50:42.785Z,67.82
2019-03-24T19:53:11.162Z,68.00
2019-03-24T19:55:42.090Z,67.77
2019-03-24T19:58:10.494Z,67.64
2019-03-24T20:00:38.970Z,67.23
2019-03-24T20:03:07.451Z,67.58
2019-03-24T20:05:35.857Z,67.19
2019-03-24T20:08:04.527Z,67.27
2019-03-24T20:10:39.435Z,69.06
2019-03-24T20:13:07.824Z,68.95
2019-03-24T20:15:36.226Z,69.42
2019-03-24T20:18:08.791Z,68.88
2019-03-24T20:20:36.447Z,68.72
2019-03-24T20:23:06.381Z,68.46
2019-03-24T20:25:38.008Z,68.30
2019-03-24T20:28:07.480Z,68.30
2019-03-24T20:30:35.909Z,68.19
2019-03-24T20:33:04.385Z,67.48
2019-03-24T20:35:33.759Z,67.71
2019-03-24T20:38:03.537Z,67.67
2019-03-24T20:40:31.948Z,67.23
2019-03-24T20:43:02.467Z,67.35
2019-03-24T20:45:30.429Z,67.18
2019-03-24T20:47:58.885Z,66.79
2019-03-24T20:50:27.332Z,66.75
2019-03-24T20:53:05.490Z,65.03
2019-03-24T20:55:26.236Z,64.03
2019-03-24T20:57:56.809Z,64.00
2019-03-24T21:00:36.725Z,63.83
2019-03-24T21:03:07.068Z,64.65
2019-03-24T21:05:36.047Z,64.86
2019-03-24T21:08:04.783Z,64.86
2019-03-24T21:10:33.226Z,65.03
2019-03-24T21:13:01.598Z,65.01
2019-03-24T21:15:36.684Z,64.54
2019-03-24T21:18:05.321Z,63.90
2019-03-24T21:20:33.712Z,64.78
2019-03-24T21:23:03.376Z,65.52
2019-03-24T21:25:31.756Z,65.13
2019-03-24T21:28:00.176Z,65.05
2019-03-24T21:30:38.504Z,65.16
2019-03-24T21:33:08.481Z,65.40
2019-03-24T21:35:41.092Z,65.56
2019-03-24T21:38:09.772Z,64.91
2019-03-24T21:40:38.243Z,65.87
2019-03-24T21:43:06.885Z,65.92
2019-03-24T21:45:35.207Z,66.22
2019-03-24T21:48:03.783Z,66.56
2019-03-24T21:50:34.665Z,67.07
2019-03-24T21:53:03.062Z,66.47
2019-03-24T21:55:31.523Z,67.06
2019-03-24T21:58:00.088Z,67.18
2019-03-24T22:00:33.487Z,67.40
2019-03-24T22:03:17.475Z,67.83
2019-03-24T22:05:45.862Z,67.61
2019-03-24T22:08:15.495Z,68.20
2019-03-24T22:10:43.876Z,68.63
2019-03-24T22:13:14.381Z,69.13
2019-03-24T22:15:48.614Z,68.93
2019-03-24T22:18:19.855Z,69.12
2019-03-24T22:20:49.287Z,69.60
2019-03-24T22:23:18.793Z,69.67
2019-03-24T22:25:47.199Z,69.61
2019-03-24T22:28:15.584Z,69.51
2019-03-24T22:30:45.106Z,70.26
2019-03-24T22:33:13.497Z,70.12
2019-03-24T22:35:41.912Z,70.04
2019-03-24T22:38:14.060Z,70.43
2019-03-24T22:40:42.411Z,70.25
2019-03-24T22:43:13.473Z,70.82
2019-03-24T22:45:41.853Z,71.04
2019-03-24T22:48:10.303Z,70.96
2019-03-24T22:50:38.748Z,70.96
2019-03-24T22:53:07.133Z,71.33
2019-03-24T22:55:35.597Z,70.82
2019-03-24T22:58:08.962Z,71.60
2019-03-24T23:00:50.773Z,71.62
2019-03-24T23:03:25.734Z,71.39
2019-03-24T23:05:59.227Z,71.86
2019-03-24T23:08:27.619Z,71.76
2019-03-24T23:10:56.098Z,71.13
2019-03-24T23:13:26.663Z,70.63
2019-03-24T23:15:55.062Z,70.12
2019-03-24T23:18:24.702Z,70.15
2019-03-24T23:20:53.041Z,70.31
2019-03-24T23:23:21.449Z,70.47
2019-03-24T23:25:49.838Z,70.16
2019-03-24T23:28:18.270Z,70.31
2019-03-24T23:30:46.676Z,69.96
2019-03-24T23:33:16.040Z,70.40
2019-03-24T23:35:44.509Z,70.04
2019-03-24T23:38:12.886Z,69.63
2019-03-24T23:40:43.360Z,69.16
2019-03-24T23:43:11.807Z,69.04
2019-03-24T23:45:40.197Z,68.62
2019-03-24T23:48:09.683Z,67.40
2019-03-24T23:50:38.064Z,67.59
2019-03-24T23:53:06.639Z,66.62
2019-03-24T23:55:35.016Z,66.54
2019-03-24T23:58:03.414Z,66.14
